sensor_id;sensor_type;location;lat;lon;timestamp;temperature;humidity
69932;DHT22;57243;52.064;5.116;2023-03-01T15:31:18;19.10;50.90
69932;DHT22;57243;52.064;5.116;2023-03-01T15:33:44;19.10;50.40
69932;DHT22;57243;52.064;5.116;2023-03-01T15:36:33;19.10;50.60
69932;DHT22;57243;52.064;5.116;2023-03-01T15:39:00;19.10;50.80
69932;DHT22;57243;52.064;5.116;2023-03-01T15:41:38;19.10;51.10
69932;DHT22;57243;52.064;5.116;2023-03-01T15:44:25;19.10;51.20
69932;DHT22;57243;52.064;5.116;2023-03-01T15:46:51;19.10;51.30
69932;DHT22;57243;52.064;5.116;2023-03-01T15:52:02;19.10;51.60
69932;DHT22;57243;52.064;5.116;2023-03-01T15:54:29;19.10;51.80
69932;DHT22;57243;52.064;5.116;2023-03-01T15:56:55;19.10;51.90
69932;DHT22;57243;52.064;5.116;2023-03-01T15:59:21;19.10;52.10
69932;DHT22;57243;52.064;5.116;2023-03-01T16:01:48;19.10;52.20
69932;DHT22;57243;52.064;5.116;2023-03-01T16:04:16;19.20;52.40
69932;DHT22;57243;52.064;5.116;2023-03-01T16:06:54;19.20;52.70
69932;DHT22;57243;52.064;5.116;2023-03-01T16:09:24;19.20;52.80
69932;DHT22;57243;52.064;5.116;2023-03-01T16:11:51;19.20;53.60
69932;DHT22;57243;52.064;5.116;2023-03-01T16:14:17;19.20;54.00
69932;DHT22;57243;52.064;5.116;2023-03-01T16:16:43;19.20;54.40
69932;DHT22;57243;52.064;5.116;2023-03-01T16:19:09;19.30;54.60
69932;DHT22;57243;52.064;5.116;2023-03-01T16:21:36;19.20;54.90
69932;DHT22;57243;52.064;5.116;2023-03-01T16:24:01;19.20;55.50
69932;DHT22;57243;52.064;5.116;2023-03-01T16:26:27;19.20;57.50
69932;DHT22;57243;52.064;5.116;2023-03-01T16:28:57;19.20;56.90
69932;DHT22;57243;52.064;5.116;2023-03-01T16:31:23;19.10;55.80
69932;DHT22;57243;52.064;5.116;2023-03-01T16:33:49;19.00;55.70
69932;DHT22;57243;52.064;5.116;2023-03-01T16:36:19;19.00;55.20
69932;DHT22;57243;52.064;5.116;2023-03-01T16:38:45;18.90;54.50
69932;DHT22;57243;52.064;5.116;2023-03-01T16:41:12;18.90;55.30
69932;DHT22;57243;52.064;5.116;2023-03-01T16:43:38;18.80;55.10
69932;DHT22;57243;52.064;5.116;2023-03-01T16:46:34;18.90;55.30
69932;DHT22;57243;52.064;5.116;2023-03-01T16:49:00;19.00;56.00
69932;DHT22;57243;52.064;5.116;2023-03-01T16:51:26;19.00;55.90
69932;DHT22;57243;52.064;5.116;2023-03-01T16:53:52;19.00;56.10
69932;DHT22;57243;52.064;5.116;2023-03-01T16:56:18;19.00;56.70
69932;DHT22;57243;52.064;5.116;2023-03-01T16:58:44;19.00;56.70
69932;DHT22;57243;52.064;5.116;2023-03-01T17:01:20;19.00;56.80
69932;DHT22;57243;52.064;5.116;2023-03-01T17:03:49;19.00;57.00
69932;DHT22;57243;52.064;5.116;2023-03-01T17:06:19;19.00;57.50
69932;DHT22;57243;52.064;5.116;2023-03-01T17:08:46;19.10;57.80
69932;DHT22;57243;52.064;5.116;2023-03-01T17:11:14;19.00;57.90
69932;DHT22;57243;52.064;5.116;2023-03-01T17:13:40;19.10;57.80
69932;DHT22;57243;52.064;5.116;2023-03-01T17:16:08;19.10;58.30
69932;DHT22;57243;52.064;5.116;2023-03-01T17:18:34;19.10;59.50
69932;DHT22;57243;52.064;5.116;2023-03-01T17:21:00;19.10;61.30
69932;DHT22;57243;52.064;5.116;2023-03-01T17:23:27;19.10;61.70
69932;DHT22;57243;52.064;5.116;2023-03-01T17:25:53;19.20;61.90
69932;DHT22;57243;52.064;5.116;2023-03-01T17:28:21;19.20;61.40
69932;DHT22;57243;52.064;5.116;2023-03-01T17:30:46;19.20;62.20
69932;DHT22;57243;52.064;5.116;2023-03-01T17:33:13;19.20;62.50
69932;DHT22;57243;52.064;5.116;2023-03-01T17:35:39;19.20;63.60
69932;DHT22;57243;52.064;5.116;2023-03-01T17:38:05;19.20;64.80
69932;DHT22;57243;52.064;5.116;2023-03-01T17:40:31;19.20;64.00
69932;DHT22;57243;52.064;5.116;2023-03-01T17:42:57;19.30;62.90
69932;DHT22;57243;52.064;5.116;2023-03-01T17:45:23;19.30;62.90
69932;DHT22;57243;52.064;5.116;2023-03-01T17:47:49;19.30;63.40
69932;DHT22;57243;52.064;5.116;2023-03-01T17:50:15;19.30;63.20
69932;DHT22;57243;52.064;5.116;2023-03-01T17:52:40;19.30;63.00
69932;DHT22;57243;52.064;5.116;2023-03-01T17:55:06;19.30;62.50
69932;DHT22;57243;52.064;5.116;2023-03-01T17:57:33;19.30;62.60
69932;DHT22;57243;52.064;5.116;2023-03-01T17:59:58;19.30;62.40
69932;DHT22;57243;52.064;5.116;2023-03-01T18:02:24;19.30;62.60
69932;DHT22;57243;52.064;5.116;2023-03-01T18:04:51;19.30;62.30
69932;DHT22;57243;52.064;5.116;2023-03-01T18:07:18;19.30;62.10
69932;DHT22;57243;52.064;5.116;2023-03-01T18:09:44;19.20;61.90
69932;DHT22;57243;52.064;5.116;2023-03-01T18:12:09;19.20;62.10
69932;DHT22;57243;52.064;5.116;2023-03-01T18:14:36;19.30;61.50
69932;DHT22;57243;52.064;5.116;2023-03-01T18:17:01;19.40;61.90
69932;DHT22;57243;52.064;5.116;2023-03-01T18:19:31;19.30;60.80
69932;DHT22;57243;52.064;5.116;2023-03-01T18:21:56;19.20;60.10
69932;DHT22;57243;52.064;5.116;2023-03-01T18:24:22;19.10;59.10
69932;DHT22;57243;52.064;5.116;2023-03-01T18:26:49;19.00;58.00
69932;DHT22;57243;52.064;5.116;2023-03-01T18:29:14;18.90;56.80
69932;DHT22;57243;52.064;5.116;2023-03-01T18:31:40;18.90;56.60
69932;DHT22;57243;52.064;5.116;2023-03-01T18:34:05;18.80;56.50
69932;DHT22;57243;52.064;5.116;2023-03-01T18:36:34;18.70;55.70
69932;DHT22;57243;52.064;5.116;2023-03-01T18:39:04;18.70;55.80
69932;DHT22;57243;52.064;5.116;2023-03-01T18:41:30;18.60;55.70
69932;DHT22;57243;52.064;5.116;2023-03-01T18:43:58;18.60;55.20
69932;DHT22;57243;52.064;5.116;2023-03-01T18:46:24;18.60;55.70
69932;DHT22;57243;52.064;5.116;2023-03-01T18:48:51;18.60;55.70
69932;DHT22;57243;52.064;5.116;2023-03-01T18:51:20;18.60;55.70
69932;DHT22;57243;52.064;5.116;2023-03-01T18:53:47;18.50;55.00
69932;DHT22;57243;52.064;5.116;2023-03-01T18:56:13;18.50;55.00
69932;DHT22;57243;52.064;5.116;2023-03-01T18:58:40;18.50;55.50
69932;DHT22;57243;52.064;5.116;2023-03-01T19:01:13;18.50;55.30
69932;DHT22;57243;52.064;5.116;2023-03-01T19:03:39;18.40;55.60
69932;DHT22;57243;52.064;5.116;2023-03-01T19:06:04;18.40;55.90
69932;DHT22;57243;52.064;5.116;2023-03-01T19:08:30;18.40;56.00
69932;DHT22;57243;52.064;5.116;2023-03-01T19:10:58;18.40;55.90
69932;DHT22;57243;52.064;5.116;2023-03-01T19:13:24;18.50;55.90
69932;DHT22;57243;52.064;5.116;2023-03-01T19:15:50;18.40;56.00
69932;DHT22;57243;52.064;5.116;2023-03-01T19:18:16;18.40;56.40
69932;DHT22;57243;52.064;5.116;2023-03-01T19:20:41;18.40;56.10
69932;DHT22;57243;52.064;5.116;2023-03-01T19:23:07;18.50;56.00
69932;DHT22;57243;52.064;5.116;2023-03-01T19:25:33;18.50;56.40
69932;DHT22;57243;52.064;5.116;2023-03-01T19:27:59;18.50;56.10
69932;DHT22;57243;52.064;5.116;2023-03-01T19:30:25;18.50;56.10
69932;DHT22;57243;52.064;5.116;2023-03-01T19:32:52;18.50;56.00
69932;DHT22;57243;52.064;5.116;2023-03-01T19:35:17;18.50;56.20
69932;DHT22;57243;52.064;5.116;2023-03-01T19:37:43;18.50;56.10
69932;DHT22;57243;52.064;5.116;2023-03-01T19:40:09;18.50;56.20
69932;DHT22;57243;52.064;5.116;2023-03-01T19:42:35;18.50;56.20
69932;DHT22;57243;52.064;5.116;2023-03-01T19:45:00;18.50;56.10
69932;DHT22;57243;52.064;5.116;2023-03-01T19:47:26;18.50;56.10
69932;DHT22;57243;52.064;5.116;2023-03-01T19:49:52;18.50;56.20
69932;DHT22;57243;52.064;5.116;2023-03-01T19:52:17;18.50;56.10
69932;DHT22;57243;52.064;5.116;2023-03-01T19:54:43;18.50;56.00
69932;DHT22;57243;52.064;5.116;2023-03-01T19:57:08;18.50;55.70
69932;DHT22;57243;52.064;5.116;2023-03-01T19:59:34;18.50;55.60
69932;DHT22;57243;52.064;5.116;2023-03-01T20:02:00;18.50;55.60
69932;DHT22;57243;52.064;5.116;2023-03-01T20:04:25;18.50;56.10
69932;DHT22;57243;52.064;5.116;2023-03-01T20:06:51;18.50;56.00
69932;DHT22;57243;52.064;5.116;2023-03-01T20:09:16;18.50;56.00
69932;DHT22;57243;52.064;5.116;2023-03-01T20:11:42;18.50;55.80
69932;DHT22;57243;52.064;5.116;2023-03-01T20:14:09;18.50;55.90
69932;DHT22;57243;52.064;5.116;2023-03-01T20:16:39;18.50;56.00
69932;DHT22;57243;52.064;5.116;2023-03-01T20:19:06;18.50;56.20
69932;DHT22;57243;52.064;5.116;2023-03-01T20:21:31;18.50;56.10
69932;DHT22;57243;52.064;5.116;2023-03-01T20:24:00;18.50;56.20
69932;DHT22;57243;52.064;5.116;2023-03-01T20:26:25;18.60;56.20
69932;DHT22;57243;52.064;5.116;2023-03-01T20:28:53;18.60;56.20
69932;DHT22;57243;52.064;5.116;2023-03-01T20:31:21;18.60;56.20
69932;DHT22;57243;52.064;5.116;2023-03-01T20:33:47;18.60;56.20
69932;DHT22;57243;52.064;5.116;2023-03-01T20:36:14;18.60;56.00
69932;DHT22;57243;52.064;5.116;2023-03-01T20:38:39;18.60;55.70
69932;DHT22;57243;52.064;5.116;2023-03-01T20:41:08;18.60;55.60
69932;DHT22;57243;52.064;5.116;2023-03-01T20:43:34;18.50;55.70
69932;DHT22;57243;52.064;5.116;2023-03-01T20:46:11;18.50;55.90
69932;DHT22;57243;52.064;5.116;2023-03-01T20:48:38;18.50;55.90
69932;DHT22;57243;52.064;5.116;2023-03-01T20:51:05;18.50;55.80
69932;DHT22;57243;52.064;5.116;2023-03-01T20:53:31;18.60;55.80
69932;DHT22;57243;52.064;5.116;2023-03-01T20:56:01;18.60;55.70
69932;DHT22;57243;52.064;5.116;2023-03-01T20:58:28;18.60;56.20
69932;DHT22;57243;52.064;5.116;2023-03-01T21:00:57;18.70;55.80
69932;DHT22;57243;52.064;5.116;2023-03-01T21:03:23;18.70;55.80
69932;DHT22;57243;52.064;5.116;2023-03-01T21:05:48;18.70;55.90
69932;DHT22;57243;52.064;5.116;2023-03-01T21:08:14;18.70;56.00
69932;DHT22;57243;52.064;5.116;2023-03-01T21:10:39;18.70;56.10
69932;DHT22;57243;52.064;5.116;2023-03-01T21:13:05;18.70;56.00
69932;DHT22;57243;52.064;5.116;2023-03-01T21:15:31;18.70;56.10
69932;DHT22;57243;52.064;5.116;2023-03-01T21:17:56;18.80;56.00
69932;DHT22;57243;52.064;5.116;2023-03-01T21:20:22;18.80;56.10
69932;DHT22;57243;52.064;5.116;2023-03-01T21:22:48;18.70;55.90
69932;DHT22;57243;52.064;5.116;2023-03-01T21:25:13;18.80;55.90
69932;DHT22;57243;52.064;5.116;2023-03-01T21:27:39;18.80;55.90
69932;DHT22;57243;52.064;5.116;2023-03-01T21:30:05;18.80;55.60
69932;DHT22;57243;52.064;5.116;2023-03-01T21:32:31;18.80;55.90
69932;DHT22;57243;52.064;5.116;2023-03-01T21:34:56;18.80;55.60
69932;DHT22;57243;52.064;5.116;2023-03-01T21:37:23;18.80;55.90
69932;DHT22;57243;52.064;5.116;2023-03-01T21:39:51;18.80;56.20
69932;DHT22;57243;52.064;5.116;2023-03-01T21:42:17;18.80;56.30
69932;DHT22;57243;52.064;5.116;2023-03-01T21:44:43;18.80;56.10
69932;DHT22;57243;52.064;5.116;2023-03-01T21:47:08;18.80;56.40
69932;DHT22;57243;52.064;5.116;2023-03-01T21:49:36;18.80;56.50
69932;DHT22;57243;52.064;5.116;2023-03-01T21:52:01;18.80;56.50
69932;DHT22;57243;52.064;5.116;2023-03-01T21:54:27;18.80;57.50
69932;DHT22;57243;52.064;5.116;2023-03-01T21:56:53;18.80;57.40
69932;DHT22;57243;52.064;5.116;2023-03-01T21:59:20;18.80;57.00
69932;DHT22;57243;52.064;5.116;2023-03-01T22:01:48;18.70;57.40
69932;DHT22;57243;52.064;5.116;2023-03-01T22:04:14;18.70;57.90
69932;DHT22;57243;52.064;5.116;2023-03-01T22:06:42;18.70;58.10
69932;DHT22;57243;52.064;5.116;2023-03-01T22:09:26;18.70;59.10
69932;DHT22;57243;52.064;5.116;2023-03-01T22:11:53;18.70;58.50
69932;DHT22;57243;52.064;5.116;2023-03-01T22:14:22;18.70;58.70
69932;DHT22;57243;52.064;5.116;2023-03-01T22:16:48;18.70;58.70
69932;DHT22;57243;52.064;5.116;2023-03-01T22:19:16;18.60;58.90
69932;DHT22;57243;52.064;5.116;2023-03-01T22:21:45;18.60;58.90
69932;DHT22;57243;52.064;5.116;2023-03-01T22:24:11;18.60;59.10
69932;DHT22;57243;52.064;5.116;2023-03-01T22:26:40;18.60;59.20
69932;DHT22;57243;52.064;5.116;2023-03-01T22:29:13;18.60;59.60
69932;DHT22;57243;52.064;5.116;2023-03-01T22:31:39;18.60;59.90
69932;DHT22;57243;52.064;5.116;2023-03-01T22:34:04;18.50;59.60
69932;DHT22;57243;52.064;5.116;2023-03-01T22:36:31;18.40;59.40
69932;DHT22;57243;52.064;5.116;2023-03-01T22:38:56;18.40;59.40
69932;DHT22;57243;52.064;5.116;2023-03-01T22:41:32;18.40;59.40
69932;DHT22;57243;52.064;5.116;2023-03-01T22:43:58;18.40;59.60
69932;DHT22;57243;52.064;5.116;2023-03-01T22:46:24;18.40;59.40
69932;DHT22;57243;52.064;5.116;2023-03-01T22:48:50;18.30;59.70
69932;DHT22;57243;52.064;5.116;2023-03-01T22:51:20;18.30;59.90
69932;DHT22;57243;52.064;5.116;2023-03-01T22:53:46;18.30;60.00
69932;DHT22;57243;52.064;5.116;2023-03-01T22:56:18;18.30;60.10
69932;DHT22;57243;52.064;5.116;2023-03-01T22:58:44;18.30;60.00
69932;DHT22;57243;52.064;5.116;2023-03-01T23:01:21;18.20;60.00
69932;DHT22;57243;52.064;5.116;2023-03-01T23:03:48;18.20;60.00
69932;DHT22;57243;52.064;5.116;2023-03-01T23:06:15;18.20;60.10
69932;DHT22;57243;52.064;5.116;2023-03-01T23:08:42;18.20;60.20
69932;DHT22;57243;52.064;5.116;2023-03-01T23:11:10;18.20;60.20
69932;DHT22;57243;52.064;5.116;2023-03-01T23:13:36;18.20;60.10
69932;DHT22;57243;52.064;5.116;2023-03-01T23:16:02;18.20;60.20
69932;DHT22;57243;52.064;5.116;2023-03-01T23:18:28;18.20;60.30
69932;DHT22;57243;52.064;5.116;2023-03-01T23:20:54;18.20;60.50
69932;DHT22;57243;52.064;5.116;2023-03-01T23:23:19;18.10;60.40
69932;DHT22;57243;52.064;5.116;2023-03-01T23:25:55;18.10;60.20
69932;DHT22;57243;52.064;5.116;2023-03-01T23:28:22;18.10;60.30
69932;DHT22;57243;52.064;5.116;2023-03-01T23:30:59;18.10;60.40
69932;DHT22;57243;52.064;5.116;2023-03-01T23:33:26;18.10;60.40
69932;DHT22;57243;52.064;5.116;2023-03-01T23:35:52;18.10;60.30
69932;DHT22;57243;52.064;5.116;2023-03-01T23:38:17;18.10;60.40
69932;DHT22;57243;52.064;5.116;2023-03-01T23:40:44;18.10;60.40
69932;DHT22;57243;52.064;5.116;2023-03-01T23:43:10;18.10;60.30
69932;DHT22;57243;52.064;5.116;2023-03-01T23:45:39;18.10;60.30
69932;DHT22;57243;52.064;5.116;2023-03-01T23:48:09;18.10;60.40
69932;DHT22;57243;52.064;5.116;2023-03-01T23:50:35;18.10;60.40
69932;DHT22;57243;52.064;5.116;2023-03-01T23:53:16;18.00;60.30
69932;DHT22;57243;52.064;5.116;2023-03-01T23:55:48;18.00;60.30
69932;DHT22;57243;52.064;5.116;2023-03-01T23:58:14;18.00;60.50
